sensor_id;sensor_type;location;lat;lon;timestamp;temperature;humidity
53711;DHT22;39605;52.704;6.752;2022-08-25T00:02:13;20.60;99.90
53711;DHT22;39605;52.704;6.752;2022-08-25T00:04:39;20.50;99.90
53711;DHT22;39605;52.704;6.752;2022-08-25T00:07:05;20.60;99.90
53711;DHT22;39605;52.704;6.752;2022-08-25T00:09:33;20.40;99.90
53711;DHT22;39605;52.704;6.752;2022-08-25T00:11:59;20.50;99.90
53711;DHT22;39605;52.704;6.752;2022-08-25T00:14:32;20.40;99.90
53711;DHT22;39605;52.704;6.752;2022-08-25T00:16:58;20.40;99.90
53711;DHT22;39605;52.704;6.752;2022-08-25T00:19:28;20.30;99.90
53711;DHT22;39605;52.704;6.752;2022-08-25T00:21:55;20.30;99.90
53711;DHT22;39605;52.704;6.752;2022-08-25T00:24:21;20.30;99.90
53711;DHT22;39605;52.704;6.752;2022-08-25T00:26:50;20.30;99.90
53711;DHT22;39605;52.704;6.752;2022-08-25T00:29:16;20.20;99.90
53711;DHT22;39605;52.704;6.752;2022-08-25T00:31:42;20.20;99.90
53711;DHT22;39605;52.704;6.752;2022-08-25T00:34:12;20.20;99.90
53711;DHT22;39605;52.704;6.752;2022-08-25T00:36:39;20.20;99.90
53711;DHT22;39605;52.704;6.752;2022-08-25T00:39:06;20.20;99.90
53711;DHT22;39605;52.704;6.752;2022-08-25T00:41:33;20.10;99.90
53711;DHT22;39605;52.704;6.752;2022-08-25T00:44:03;20.10;99.90
53711;DHT22;39605;52.704;6.752;2022-08-25T00:46:34;20.10;99.90
53711;DHT22;39605;52.704;6.752;2022-08-25T00:49:04;20.00;99.90
53711;DHT22;39605;52.704;6.752;2022-08-25T00:53:59;19.90;99.90
53711;DHT22;39605;52.704;6.752;2022-08-25T00:56:27;19.90;99.90
53711;DHT22;39605;52.704;6.752;2022-08-25T00:58:53;19.90;99.90
53711;DHT22;39605;52.704;6.752;2022-08-25T01:01:19;19.80;99.90
53711;DHT22;39605;52.704;6.752;2022-08-25T01:03:44;19.80;99.90
53711;DHT22;39605;52.704;6.752;2022-08-25T01:06:10;19.80;99.90
53711;DHT22;39605;52.704;6.752;2022-08-25T01:08:36;19.70;99.90
53711;DHT22;39605;52.704;6.752;2022-08-25T01:11:06;19.70;99.90
53711;DHT22;39605;52.704;6.752;2022-08-25T01:13:46;19.70;99.90
53711;DHT22;39605;52.704;6.752;2022-08-25T01:16:14;19.70;99.90
53711;DHT22;39605;52.704;6.752;2022-08-25T01:18:47;19.70;99.90
53711;DHT22;39605;52.704;6.752;2022-08-25T01:21:15;19.60;99.90
53711;DHT22;39605;52.704;6.752;2022-08-25T01:23:42;19.60;99.90
53711;DHT22;39605;52.704;6.752;2022-08-25T01:28:43;19.60;99.90
53711;DHT22;39605;52.704;6.752;2022-08-25T01:31:30;19.50;99.90
53711;DHT22;39605;52.704;6.752;2022-08-25T01:33:57;19.50;99.90
53711;DHT22;39605;52.704;6.752;2022-08-25T01:36:25;19.50;99.90
53711;DHT22;39605;52.704;6.752;2022-08-25T01:38:51;19.50;99.90
53711;DHT22;39605;52.704;6.752;2022-08-25T01:44:10;19.40;99.90
53711;DHT22;39605;52.704;6.752;2022-08-25T01:46:36;19.40;99.90
53711;DHT22;39605;52.704;6.752;2022-08-25T01:49:02;19.40;99.90
53711;DHT22;39605;52.704;6.752;2022-08-25T01:51:33;19.40;99.90
53711;DHT22;39605;52.704;6.752;2022-08-25T01:54:02;19.30;99.90
53711;DHT22;39605;52.704;6.752;2022-08-25T01:56:28;19.30;99.90
53711;DHT22;39605;52.704;6.752;2022-08-25T01:58:53;19.30;99.90
53711;DHT22;39605;52.704;6.752;2022-08-25T02:01:21;19.20;99.90
53711;DHT22;39605;52.704;6.752;2022-08-25T02:03:50;19.20;99.90
53711;DHT22;39605;52.704;6.752;2022-08-25T02:06:23;19.20;99.90
53711;DHT22;39605;52.704;6.752;2022-08-25T02:08:53;19.20;99.90
53711;DHT22;39605;52.704;6.752;2022-08-25T02:11:19;19.10;99.90
53711;DHT22;39605;52.704;6.752;2022-08-25T02:13:46;19.10;99.90
53711;DHT22;39605;52.704;6.752;2022-08-25T02:16:17;19.10;99.90
53711;DHT22;39605;52.704;6.752;2022-08-25T02:18:46;19.10;99.90
53711;DHT22;39605;52.704;6.752;2022-08-25T02:21:13;19.10;99.90
53711;DHT22;39605;52.704;6.752;2022-08-25T02:23:39;19.00;99.90
53711;DHT22;39605;52.704;6.752;2022-08-25T02:26:07;19.10;99.90
53711;DHT22;39605;52.704;6.752;2022-08-25T02:28:33;19.00;99.90
53711;DHT22;39605;52.704;6.752;2022-08-25T02:30:59;19.00;99.90
53711;DHT22;39605;52.704;6.752;2022-08-25T02:33:25;19.00;99.90
53711;DHT22;39605;52.704;6.752;2022-08-25T02:35:51;19.00;99.90
53711;DHT22;39605;52.704;6.752;2022-08-25T02:38:16;18.90;99.90
53711;DHT22;39605;52.704;6.752;2022-08-25T02:40:43;19.00;99.90
53711;DHT22;39605;52.704;6.752;2022-08-25T02:43:08;18.90;99.90
53711;DHT22;39605;52.704;6.752;2022-08-25T02:45:34;18.90;99.90
53711;DHT22;39605;52.704;6.752;2022-08-25T02:48:01;18.80;99.90
53711;DHT22;39605;52.704;6.752;2022-08-25T02:50:27;18.80;99.90
53711;DHT22;39605;52.704;6.752;2022-08-25T02:52:53;18.80;99.90
53711;DHT22;39605;52.704;6.752;2022-08-25T02:55:19;18.80;99.90
53711;DHT22;39605;52.704;6.752;2022-08-25T02:57:46;18.80;99.90
53711;DHT22;39605;52.704;6.752;2022-08-25T03:00:14;18.80;99.90
53711;DHT22;39605;52.704;6.752;2022-08-25T03:02:41;18.80;99.90
53711;DHT22;39605;52.704;6.752;2022-08-25T03:05:08;18.80;99.90
53711;DHT22;39605;52.704;6.752;2022-08-25T03:07:35;18.70;99.90
53711;DHT22;39605;52.704;6.752;2022-08-25T03:10:07;18.70;99.90
53711;DHT22;39605;52.704;6.752;2022-08-25T03:12:33;18.70;99.90
53711;DHT22;39605;52.704;6.752;2022-08-25T03:14:59;18.70;99.90
53711;DHT22;39605;52.704;6.752;2022-08-25T03:17:25;18.70;99.90
53711;DHT22;39605;52.704;6.752;2022-08-25T03:19:51;18.70;99.90
53711;DHT22;39605;52.704;6.752;2022-08-25T03:22:16;18.80;99.90
53711;DHT22;39605;52.704;6.752;2022-08-25T03:24:42;18.70;99.90
53711;DHT22;39605;52.704;6.752;2022-08-25T03:27:07;18.70;99.90
53711;DHT22;39605;52.704;6.752;2022-08-25T03:29:33;18.70;99.90
53711;DHT22;39605;52.704;6.752;2022-08-25T03:31:59;18.70;99.90
53711;DHT22;39605;52.704;6.752;2022-08-25T03:34:27;18.70;99.90
53711;DHT22;39605;52.704;6.752;2022-08-25T03:36:54;18.60;99.90
53711;DHT22;39605;52.704;6.752;2022-08-25T03:39:23;18.60;99.90
53711;DHT22;39605;52.704;6.752;2022-08-25T03:41:49;18.60;99.90
53711;DHT22;39605;52.704;6.752;2022-08-25T03:44:17;18.60;99.90
53711;DHT22;39605;52.704;6.752;2022-08-25T03:46:46;18.50;99.90
53711;DHT22;39605;52.704;6.752;2022-08-25T03:49:14;18.50;99.90
53711;DHT22;39605;52.704;6.752;2022-08-25T03:51:43;18.50;99.90
53711;DHT22;39605;52.704;6.752;2022-08-25T03:54:11;18.50;99.90
53711;DHT22;39605;52.704;6.752;2022-08-25T03:56:37;18.50;99.90
53711;DHT22;39605;52.704;6.752;2022-08-25T03:59:03;18.50;99.90
53711;DHT22;39605;52.704;6.752;2022-08-25T04:01:30;18.50;99.90
53711;DHT22;39605;52.704;6.752;2022-08-25T04:03:56;18.50;99.90
53711;DHT22;39605;52.704;6.752;2022-08-25T04:06:21;18.50;99.90
53711;DHT22;39605;52.704;6.752;2022-08-25T04:08:48;18.50;99.90
53711;DHT22;39605;52.704;6.752;2022-08-25T04:11:16;18.40;99.90
53711;DHT22;39605;52.704;6.752;2022-08-25T04:13:42;18.40;99.90
53711;DHT22;39605;52.704;6.752;2022-08-25T04:16:31;18.40;99.90
53711;DHT22;39605;52.704;6.752;2022-08-25T04:18:59;18.30;99.90
53711;DHT22;39605;52.704;6.752;2022-08-25T04:21:26;18.30;99.90
53711;DHT22;39605;52.704;6.752;2022-08-25T04:23:54;18.30;99.90
53711;DHT22;39605;52.704;6.752;2022-08-25T04:26:23;18.30;99.90
53711;DHT22;39605;52.704;6.752;2022-08-25T04:28:50;18.30;99.90
53711;DHT22;39605;52.704;6.752;2022-08-25T04:31:17;18.20;99.90
53711;DHT22;39605;52.704;6.752;2022-08-25T04:33:43;18.20;99.90
53711;DHT22;39605;52.704;6.752;2022-08-25T04:36:13;18.20;99.90
53711;DHT22;39605;52.704;6.752;2022-08-25T04:38:40;18.20;99.90
53711;DHT22;39605;52.704;6.752;2022-08-25T04:41:08;18.10;99.90
53711;DHT22;39605;52.704;6.752;2022-08-25T04:43:35;18.20;99.90
53711;DHT22;39605;52.704;6.752;2022-08-25T04:46:06;18.20;99.90
53711;DHT22;39605;52.704;6.752;2022-08-25T04:48:33;18.20;99.90
53711;DHT22;39605;52.704;6.752;2022-08-25T04:51:07;18.20;99.90
53711;DHT22;39605;52.704;6.752;2022-08-25T04:53:34;18.20;99.90
53711;DHT22;39605;52.704;6.752;2022-08-25T04:56:00;18.20;99.90
53711;DHT22;39605;52.704;6.752;2022-08-25T04:58:26;18.20;99.90
53711;DHT22;39605;52.704;6.752;2022-08-25T05:00:52;18.20;99.90
53711;DHT22;39605;52.704;6.752;2022-08-25T05:03:18;18.20;99.90
53711;DHT22;39605;52.704;6.752;2022-08-25T05:05:43;18.20;99.90
53711;DHT22;39605;52.704;6.752;2022-08-25T05:08:09;18.20;99.90
53711;DHT22;39605;52.704;6.752;2022-08-25T05:10:39;18.30;99.90
53711;DHT22;39605;52.704;6.752;2022-08-25T05:13:05;18.20;99.90
53711;DHT22;39605;52.704;6.752;2022-08-25T05:15:30;18.30;99.90
53711;DHT22;39605;52.704;6.752;2022-08-25T05:18:15;18.30;99.90
53711;DHT22;39605;52.704;6.752;2022-08-25T05:20:41;18.30;99.90
53711;DHT22;39605;52.704;6.752;2022-08-25T05:23:07;18.30;99.90
53711;DHT22;39605;52.704;6.752;2022-08-25T05:25:35;18.40;99.90
53711;DHT22;39605;52.704;6.752;2022-08-25T05:28:01;18.40;99.90
53711;DHT22;39605;52.704;6.752;2022-08-25T05:30:27;18.40;99.90
53711;DHT22;39605;52.704;6.752;2022-08-25T05:32:52;18.40;99.90
53711;DHT22;39605;52.704;6.752;2022-08-25T05:35:18;18.40;99.90
53711;DHT22;39605;52.704;6.752;2022-08-25T05:37:49;18.50;99.90
53711;DHT22;39605;52.704;6.752;2022-08-25T05:40:14;18.50;99.90
53711;DHT22;39605;52.704;6.752;2022-08-25T05:42:40;18.50;99.90
53711;DHT22;39605;52.704;6.752;2022-08-25T05:45:06;18.60;99.90
53711;DHT22;39605;52.704;6.752;2022-08-25T05:47:32;18.60;99.90
53711;DHT22;39605;52.704;6.752;2022-08-25T05:49:58;18.60;99.90
53711;DHT22;39605;52.704;6.752;2022-08-25T05:52:26;18.60;99.90
53711;DHT22;39605;52.704;6.752;2022-08-25T05:54:52;18.70;99.90
53711;DHT22;39605;52.704;6.752;2022-08-25T05:57:18;18.60;99.90
53711;DHT22;39605;52.704;6.752;2022-08-25T05:59:44;18.70;99.90
53711;DHT22;39605;52.704;6.752;2022-08-25T06:02:10;18.70;99.90
53711;DHT22;39605;52.704;6.752;2022-08-25T06:04:54;18.80;99.90
53711;DHT22;39605;52.704;6.752;2022-08-25T06:07:20;18.80;99.90
53711;DHT22;39605;52.704;6.752;2022-08-25T06:09:45;18.90;99.90
53711;DHT22;39605;52.704;6.752;2022-08-25T06:12:13;19.00;99.90
53711;DHT22;39605;52.704;6.752;2022-08-25T06:14:39;19.10;99.90
53711;DHT22;39605;52.704;6.752;2022-08-25T06:17:05;19.30;99.90
53711;DHT22;39605;52.704;6.752;2022-08-25T06:19:30;19.40;99.90
53711;DHT22;39605;52.704;6.752;2022-08-25T06:21:56;19.50;99.90
53711;DHT22;39605;52.704;6.752;2022-08-25T06:24:25;19.50;99.90
53711;DHT22;39605;52.704;6.752;2022-08-25T06:26:51;19.50;99.90
53711;DHT22;39605;52.704;6.752;2022-08-25T06:29:17;19.60;99.90
53711;DHT22;39605;52.704;6.752;2022-08-25T06:31:42;19.70;99.90
53711;DHT22;39605;52.704;6.752;2022-08-25T06:34:09;19.80;99.90
53711;DHT22;39605;52.704;6.752;2022-08-25T06:36:35;19.80;99.90
53711;DHT22;39605;52.704;6.752;2022-08-25T06:39:01;19.90;99.90
53711;DHT22;39605;52.704;6.752;2022-08-25T06:41:27;19.90;99.90
53711;DHT22;39605;52.704;6.752;2022-08-25T06:43:52;20.00;99.90
53711;DHT22;39605;52.704;6.752;2022-08-25T06:46:20;20.00;99.90
53711;DHT22;39605;52.704;6.752;2022-08-25T06:48:48;20.10;99.90
53711;DHT22;39605;52.704;6.752;2022-08-25T06:51:16;20.20;99.90
53711;DHT22;39605;52.704;6.752;2022-08-25T06:53:44;20.30;99.90
53711;DHT22;39605;52.704;6.752;2022-08-25T06:56:11;20.60;99.90
53711;DHT22;39605;52.704;6.752;2022-08-25T06:58:37;21.30;99.90
53711;DHT22;39605;52.704;6.752;2022-08-25T07:01:14;22.30;99.90
53711;DHT22;39605;52.704;6.752;2022-08-25T07:03:41;23.40;99.90
53711;DHT22;39605;52.704;6.752;2022-08-25T07:06:07;24.50;99.90
53711;DHT22;39605;52.704;6.752;2022-08-25T07:08:33;25.30;99.90
53711;DHT22;39605;52.704;6.752;2022-08-25T07:11:09;25.70;98.00
53711;DHT22;39605;52.704;6.752;2022-08-25T07:13:36;26.30;97.30
53711;DHT22;39605;52.704;6.752;2022-08-25T07:16:04;26.40;94.50
53711;DHT22;39605;52.704;6.752;2022-08-25T07:18:30;26.50;94.10
53711;DHT22;39605;52.704;6.752;2022-08-25T07:20:56;26.30;92.90
53711;DHT22;39605;52.704;6.752;2022-08-25T07:23:23;26.00;93.40
53711;DHT22;39605;52.704;6.752;2022-08-25T07:25:49;25.80;95.00
53711;DHT22;39605;52.704;6.752;2022-08-25T07:28:16;25.80;93.70
53711;DHT22;39605;52.704;6.752;2022-08-25T07:30:42;26.10;94.10
53711;DHT22;39605;52.704;6.752;2022-08-25T07:33:08;26.40;93.10
53711;DHT22;39605;52.704;6.752;2022-08-25T07:35:34;26.70;94.10
53711;DHT22;39605;52.704;6.752;2022-08-25T07:38:01;27.10;92.90
53711;DHT22;39605;52.704;6.752;2022-08-25T07:40:32;27.40;92.10
53711;DHT22;39605;52.704;6.752;2022-08-25T07:43:01;27.60;93.20
53711;DHT22;39605;52.704;6.752;2022-08-25T07:45:31;27.50;92.80
53711;DHT22;39605;52.704;6.752;2022-08-25T07:48:09;27.20;92.20
53711;DHT22;39605;52.704;6.752;2022-08-25T07:50:38;27.00;92.40
53711;DHT22;39605;52.704;6.752;2022-08-25T07:53:07;26.80;92.40
53711;DHT22;39605;52.704;6.752;2022-08-25T07:55:33;26.50;93.10
53711;DHT22;39605;52.704;6.752;2022-08-25T07:58:02;26.10;93.00
53711;DHT22;39605;52.704;6.752;2022-08-25T08:00:28;25.80;93.70
53711;DHT22;39605;52.704;6.752;2022-08-25T08:02:57;25.60;93.60
53711;DHT22;39605;52.704;6.752;2022-08-25T08:05:24;25.40;95.10
53711;DHT22;39605;52.704;6.752;2022-08-25T08:07:51;25.30;94.20
53711;DHT22;39605;52.704;6.752;2022-08-25T08:10:16;25.30;95.00
53711;DHT22;39605;52.704;6.752;2022-08-25T08:12:42;25.20;95.60
53711;DHT22;39605;52.704;6.752;2022-08-25T08:15:08;25.20;97.20
53711;DHT22;39605;52.704;6.752;2022-08-25T08:17:34;25.10;95.90
53711;DHT22;39605;52.704;6.752;2022-08-25T08:20:01;25.10;96.60
53711;DHT22;39605;52.704;6.752;2022-08-25T08:22:29;25.10;95.90
53711;DHT22;39605;52.704;6.752;2022-08-25T08:24:54;25.10;96.50
53711;DHT22;39605;52.704;6.752;2022-08-25T08:27:20;25.10;96.90
53711;DHT22;39605;52.704;6.752;2022-08-25T08:29:46;25.00;96.90
53711;DHT22;39605;52.704;6.752;2022-08-25T08:32:12;25.10;96.80
53711;DHT22;39605;52.704;6.752;2022-08-25T08:34:41;25.10;96.70
53711;DHT22;39605;52.704;6.752;2022-08-25T08:37:08;25.10;96.90
53711;DHT22;39605;52.704;6.752;2022-08-25T08:39:35;25.20;98.10
53711;DHT22;39605;52.704;6.752;2022-08-25T08:45:23;25.30;96.70
53711;DHT22;39605;52.704;6.752;2022-08-25T08:51:01;25.50;96.50
53711;DHT22;39605;52.704;6.752;2022-08-25T08:53:54;25.70;96.10
53711;DHT22;39605;52.704;6.752;2022-08-25T08:56:37;25.80;95.80
53711;DHT22;39605;52.704;6.752;2022-08-25T08:59:05;26.00;96.20
53711;DHT22;39605;52.704;6.752;2022-08-25T09:01:55;26.10;95.30
53711;DHT22;39605;52.704;6.752;2022-08-25T09:07:04;26.40;96.00
53711;DHT22;39605;52.704;6.752;2022-08-25T09:09:34;26.60;95.40
53711;DHT22;39605;52.704;6.752;2022-08-25T09:17:20;27.00;95.80
53711;DHT22;39605;52.704;6.752;2022-08-25T09:28:31;27.50;93.40
53711;DHT22;39605;52.704;6.752;2022-08-25T09:33:46;27.80;93.40
53711;DHT22;39605;52.704;6.752;2022-08-25T09:36:12;27.90;90.10
53711;DHT22;39605;52.704;6.752;2022-08-25T09:38:39;28.00;90.30
53711;DHT22;39605;52.704;6.752;2022-08-25T09:41:05;28.10;90.10
53711;DHT22;39605;52.704;6.752;2022-08-25T09:43:35;28.20;89.00
53711;DHT22;39605;52.704;6.752;2022-08-25T09:48:32;28.40;85.50
53711;DHT22;39605;52.704;6.752;2022-08-25T09:56:29;28.80;82.70
53711;DHT22;39605;52.704;6.752;2022-08-25T09:59:21;28.80;80.40
53711;DHT22;39605;52.704;6.752;2022-08-25T10:01:51;28.90;82.00
53711;DHT22;39605;52.704;6.752;2022-08-25T10:04:28;29.00;78.70
53711;DHT22;39605;52.704;6.752;2022-08-25T10:06:58;29.10;81.40
53711;DHT22;39605;52.704;6.752;2022-08-25T10:09:33;29.20;77.40
53711;DHT22;39605;52.704;6.752;2022-08-25T10:12:00;29.30;76.60
53711;DHT22;39605;52.704;6.752;2022-08-25T10:14:36;29.40;81.70
53711;DHT22;39605;52.704;6.752;2022-08-25T10:17:27;29.60;77.60
53711;DHT22;39605;52.704;6.752;2022-08-25T10:22:33;29.70;75.30
53711;DHT22;39605;52.704;6.752;2022-08-25T10:25:00;29.80;72.60
53711;DHT22;39605;52.704;6.752;2022-08-25T10:31:11;30.00;73.50
53711;DHT22;39605;52.704;6.752;2022-08-25T10:33:44;30.10;73.80
53711;DHT22;39605;52.704;6.752;2022-08-25T10:36:21;30.30;73.10
53711;DHT22;39605;52.704;6.752;2022-08-25T10:38:58;30.40;71.20
53711;DHT22;39605;52.704;6.752;2022-08-25T10:52:57;30.90;70.60
53711;DHT22;39605;52.704;6.752;2022-08-25T10:55:38;30.90;68.80
53711;DHT22;39605;52.704;6.752;2022-08-25T10:58:24;31.00;69.50
53711;DHT22;39605;52.704;6.752;2022-08-25T11:01:28;31.10;71.30
53711;DHT22;39605;52.704;6.752;2022-08-25T11:07:07;31.40;67.80
53711;DHT22;39605;52.704;6.752;2022-08-25T11:09:40;31.40;66.00
53711;DHT22;39605;52.704;6.752;2022-08-25T11:15:08;31.40;67.10
53711;DHT22;39605;52.704;6.752;2022-08-25T11:17:58;31.60;67.00
53711;DHT22;39605;52.704;6.752;2022-08-25T11:23:27;31.80;64.30
53711;DHT22;39605;52.704;6.752;2022-08-25T11:26:07;31.80;60.90
53711;DHT22;39605;52.704;6.752;2022-08-25T11:31:08;31.80;60.60
53711;DHT22;39605;52.704;6.752;2022-08-25T11:33:34;31.90;61.50
53711;DHT22;39605;52.704;6.752;2022-08-25T11:36:33;31.80;58.20
53711;DHT22;39605;52.704;6.752;2022-08-25T11:39:38;31.90;61.40
53711;DHT22;39605;52.704;6.752;2022-08-25T11:48:04;32.00;59.40
53711;DHT22;39605;52.704;6.752;2022-08-25T11:53:26;32.00;59.10
53711;DHT22;39605;52.704;6.752;2022-08-25T11:55:55;32.00;60.20
53711;DHT22;39605;52.704;6.752;2022-08-25T11:58:27;32.00;57.90
53711;DHT22;39605;52.704;6.752;2022-08-25T12:00:56;32.20;59.40
53711;DHT22;39605;52.704;6.752;2022-08-25T12:06:29;32.40;59.10
53711;DHT22;39605;52.704;6.752;2022-08-25T12:16:41;32.50;58.30
53711;DHT22;39605;52.704;6.752;2022-08-25T12:30:30;32.70;56.40
53711;DHT22;39605;52.704;6.752;2022-08-25T12:36:03;32.90;57.50
53711;DHT22;39605;52.704;6.752;2022-08-25T12:41:06;32.90;56.30
53711;DHT22;39605;52.704;6.752;2022-08-25T12:43:35;33.00;56.40
53711;DHT22;39605;52.704;6.752;2022-08-25T12:46:31;33.10;53.30
53711;DHT22;39605;52.704;6.752;2022-08-25T12:56:49;32.90;53.60
53711;DHT22;39605;52.704;6.752;2022-08-25T12:59:31;33.00;55.20
53711;DHT22;39605;52.704;6.752;2022-08-25T13:05:02;33.10;53.40
53711;DHT22;39605;52.704;6.752;2022-08-25T13:08:00;33.10;53.50
53711;DHT22;39605;52.704;6.752;2022-08-25T13:13:09;33.20;54.30
53711;DHT22;39605;52.704;6.752;2022-08-25T13:15:41;33.20;52.70
53711;DHT22;39605;52.704;6.752;2022-08-25T13:18:39;33.20;51.90
53711;DHT22;39605;52.704;6.752;2022-08-25T13:21:27;33.10;51.80
53711;DHT22;39605;52.704;6.752;2022-08-25T13:23:55;33.10;52.50
53711;DHT22;39605;52.704;6.752;2022-08-25T13:26:29;33.20;52.20
53711;DHT22;39605;52.704;6.752;2022-08-25T13:29:02;33.20;52.80
53711;DHT22;39605;52.704;6.752;2022-08-25T13:31:29;33.10;51.20
53711;DHT22;39605;52.704;6.752;2022-08-25T13:34:00;33.10;51.60
53711;DHT22;39605;52.704;6.752;2022-08-25T13:36:31;33.10;52.40
53711;DHT22;39605;52.704;6.752;2022-08-25T13:39:22;33.10;52.60
53711;DHT22;39605;52.704;6.752;2022-08-25T13:41:53;33.00;51.70
53711;DHT22;39605;52.704;6.752;2022-08-25T13:44:22;32.90;52.10
53711;DHT22;39605;52.704;6.752;2022-08-25T13:47:12;33.00;53.60
53711;DHT22;39605;52.704;6.752;2022-08-25T13:49:43;33.10;52.80
53711;DHT22;39605;52.704;6.752;2022-08-25T13:52:35;33.10;51.60
53711;DHT22;39605;52.704;6.752;2022-08-25T13:55:01;33.10;51.90
53711;DHT22;39605;52.704;6.752;2022-08-25T13:57:28;33.20;51.00
53711;DHT22;39605;52.704;6.752;2022-08-25T13:59:59;33.30;51.60
53711;DHT22;39605;52.704;6.752;2022-08-25T14:02:50;33.30;52.50
53711;DHT22;39605;52.704;6.752;2022-08-25T14:05:34;33.30;52.60
53711;DHT22;39605;52.704;6.752;2022-08-25T14:08:00;33.30;53.20
53711;DHT22;39605;52.704;6.752;2022-08-25T14:10:35;33.40;52.80
53711;DHT22;39605;52.704;6.752;2022-08-25T14:13:09;33.30;53.30
53711;DHT22;39605;52.704;6.752;2022-08-25T14:15:35;33.20;53.20
53711;DHT22;39605;52.704;6.752;2022-08-25T14:18:13;33.20;53.20
53711;DHT22;39605;52.704;6.752;2022-08-25T14:20:45;33.20;53.90
53711;DHT22;39605;52.704;6.752;2022-08-25T14:23:16;33.10;53.60
53711;DHT22;39605;52.704;6.752;2022-08-25T14:25:42;33.10;53.20
53711;DHT22;39605;52.704;6.752;2022-08-25T14:28:14;33.10;53.40
53711;DHT22;39605;52.704;6.752;2022-08-25T14:30:43;33.10;53.40
53711;DHT22;39605;52.704;6.752;2022-08-25T14:33:10;33.10;54.60
53711;DHT22;39605;52.704;6.752;2022-08-25T14:35:36;33.10;54.90
53711;DHT22;39605;52.704;6.752;2022-08-25T14:38:07;33.10;54.40
53711;DHT22;39605;52.704;6.752;2022-08-25T14:40:33;33.10;55.70
53711;DHT22;39605;52.704;6.752;2022-08-25T14:42:59;33.20;54.60
53711;DHT22;39605;52.704;6.752;2022-08-25T14:45:25;33.10;55.90
53711;DHT22;39605;52.704;6.752;2022-08-25T14:47:51;32.90;55.60
53711;DHT22;39605;52.704;6.752;2022-08-25T14:50:18;32.90;55.80
53711;DHT22;39605;52.704;6.752;2022-08-25T14:52:44;32.90;54.90
53711;DHT22;39605;52.704;6.752;2022-08-25T14:55:11;32.80;55.70
53711;DHT22;39605;52.704;6.752;2022-08-25T14:57:37;32.70;55.50
53711;DHT22;39605;52.704;6.752;2022-08-25T15:00:04;32.70;56.40
53711;DHT22;39605;52.704;6.752;2022-08-25T15:02:36;32.50;57.10
53711;DHT22;39605;52.704;6.752;2022-08-25T15:05:04;32.50;55.80
53711;DHT22;39605;52.704;6.752;2022-08-25T15:07:32;32.40;56.60
53711;DHT22;39605;52.704;6.752;2022-08-25T15:10:17;32.40;55.40
53711;DHT22;39605;52.704;6.752;2022-08-25T15:12:43;32.30;56.40
53711;DHT22;39605;52.704;6.752;2022-08-25T15:15:09;32.30;56.10
53711;DHT22;39605;52.704;6.752;2022-08-25T15:17:36;32.20;56.60
53711;DHT22;39605;52.704;6.752;2022-08-25T15:20:02;32.20;55.60
53711;DHT22;39605;52.704;6.752;2022-08-25T15:22:28;32.20;57.20
53711;DHT22;39605;52.704;6.752;2022-08-25T15:24:54;32.10;56.90
53711;DHT22;39605;52.704;6.752;2022-08-25T15:27:20;32.00;57.20
53711;DHT22;39605;52.704;6.752;2022-08-25T15:29:46;32.00;57.50
53711;DHT22;39605;52.704;6.752;2022-08-25T15:32:12;32.00;57.80
53711;DHT22;39605;52.704;6.752;2022-08-25T15:34:37;32.00;57.70
53711;DHT22;39605;52.704;6.752;2022-08-25T15:37:15;31.90;57.20
53711;DHT22;39605;52.704;6.752;2022-08-25T15:39:42;31.80;57.00
53711;DHT22;39605;52.704;6.752;2022-08-25T15:42:08;31.70;56.70
53711;DHT22;39605;52.704;6.752;2022-08-25T15:44:39;31.70;58.60
53711;DHT22;39605;52.704;6.752;2022-08-25T15:47:06;31.50;57.70
53711;DHT22;39605;52.704;6.752;2022-08-25T15:49:32;31.40;57.50
53711;DHT22;39605;52.704;6.752;2022-08-25T15:51:58;31.40;58.70
53711;DHT22;39605;52.704;6.752;2022-08-25T15:54:25;31.30;57.90
53711;DHT22;39605;52.704;6.752;2022-08-25T15:56:51;31.30;58.30
53711;DHT22;39605;52.704;6.752;2022-08-25T15:59:17;31.20;59.10
53711;DHT22;39605;52.704;6.752;2022-08-25T16:01:43;31.20;57.80
53711;DHT22;39605;52.704;6.752;2022-08-25T16:04:10;31.10;58.90
53711;DHT22;39605;52.704;6.752;2022-08-25T16:06:35;31.00;58.40
53711;DHT22;39605;52.704;6.752;2022-08-25T16:09:02;31.00;58.80
53711;DHT22;39605;52.704;6.752;2022-08-25T16:11:29;30.90;59.30
53711;DHT22;39605;52.704;6.752;2022-08-25T16:13:56;30.90;58.80
53711;DHT22;39605;52.704;6.752;2022-08-25T16:16:24;30.80;59.40
53711;DHT22;39605;52.704;6.752;2022-08-25T16:18:51;30.70;60.80
53711;DHT22;39605;52.704;6.752;2022-08-25T16:21:20;30.60;60.90
53711;DHT22;39605;52.704;6.752;2022-08-25T16:23:49;30.60;60.40
53711;DHT22;39605;52.704;6.752;2022-08-25T16:26:15;30.60;59.40
53711;DHT22;39605;52.704;6.752;2022-08-25T16:28:41;30.50;59.30
53711;DHT22;39605;52.704;6.752;2022-08-25T16:31:12;30.50;61.40
53711;DHT22;39605;52.704;6.752;2022-08-25T16:33:38;30.50;60.10
53711;DHT22;39605;52.704;6.752;2022-08-25T16:36:10;30.40;60.90
53711;DHT22;39605;52.704;6.752;2022-08-25T16:38:37;30.50;60.00
53711;DHT22;39605;52.704;6.752;2022-08-25T16:41:12;30.40;60.00
53711;DHT22;39605;52.704;6.752;2022-08-25T16:43:38;30.30;60.60
53711;DHT22;39605;52.704;6.752;2022-08-25T16:46:06;30.30;61.20
53711;DHT22;39605;52.704;6.752;2022-08-25T16:48:34;30.20;61.00
53711;DHT22;39605;52.704;6.752;2022-08-25T16:51:08;30.10;61.90
53711;DHT22;39605;52.704;6.752;2022-08-25T16:53:34;30.10;60.90
53711;DHT22;39605;52.704;6.752;2022-08-25T16:56:18;30.10;61.10
53711;DHT22;39605;52.704;6.752;2022-08-25T16:58:52;30.10;63.00
53711;DHT22;39605;52.704;6.752;2022-08-25T17:01:20;30.00;61.60
53711;DHT22;39605;52.704;6.752;2022-08-25T17:03:47;30.00;61.20
53711;DHT22;39605;52.704;6.752;2022-08-25T17:06:15;30.00;61.90
53711;DHT22;39605;52.704;6.752;2022-08-25T17:08:40;29.90;64.20
53711;DHT22;39605;52.704;6.752;2022-08-25T17:11:15;29.90;64.00
53711;DHT22;39605;52.704;6.752;2022-08-25T17:13:46;29.80;63.40
53711;DHT22;39605;52.704;6.752;2022-08-25T17:16:13;29.70;64.50
53711;DHT22;39605;52.704;6.752;2022-08-25T17:18:39;29.70;63.10
53711;DHT22;39605;52.704;6.752;2022-08-25T17:21:10;29.70;65.10
53711;DHT22;39605;52.704;6.752;2022-08-25T17:23:41;29.60;63.20
53711;DHT22;39605;52.704;6.752;2022-08-25T17:26:12;29.50;65.20
53711;DHT22;39605;52.704;6.752;2022-08-25T17:28:38;29.50;64.50
53711;DHT22;39605;52.704;6.752;2022-08-25T17:31:06;29.50;65.10
53711;DHT22;39605;52.704;6.752;2022-08-25T17:33:32;29.40;68.50
53711;DHT22;39605;52.704;6.752;2022-08-25T17:35:57;29.30;64.60
53711;DHT22;39605;52.704;6.752;2022-08-25T17:38:26;29.30;65.90
53711;DHT22;39605;52.704;6.752;2022-08-25T17:40:57;29.20;67.20
53711;DHT22;39605;52.704;6.752;2022-08-25T17:43:27;29.10;66.20
53711;DHT22;39605;52.704;6.752;2022-08-25T17:45:53;29.00;68.20